createdAt,value
2023-06-29T00:00:18.022Z,96873.53
2023-06-29T00:02:19.577Z,96876.19
2023-06-29T00:04:22.690Z,96873.13
2023-06-29T00:06:24.648Z,96870.38
2023-06-29T00:08:27.327Z,96874.34
2023-06-29T00:10:30.022Z,96865.97
2023-06-29T00:12:31.702Z,96868.06
2023-06-29T00:14:33.896Z,96868.91
2023-06-29T00:16:36.237Z,96863.41
2023-06-29T00:18:37.734Z,96866.56
2023-06-29T00:20:40.154Z,96861.31
2023-06-29T00:22:48.962Z,96863.59
2023-06-29T00:24:57.837Z,96862.63
2023-06-29T00:26:59.384Z,96862.13
2023-06-29T00:29:02.981Z,96861.72
2023-06-29T00:31:05.022Z,96857.88
2023-06-29T00:33:06.701Z,96853.16
2023-06-29T00:35:10.254Z,96858.25
2023-06-29T00:37:12.050Z,96858.94
2023-06-29T00:39:13.588Z,96858.06
2023-06-29T00:41:15.439Z,96859.34
2023-06-29T00:43:19.019Z,96849.59
2023-06-29T00:45:20.743Z,96856.72
2023-06-29T00:47:22.636Z,96855.38
2023-06-29T00:49:24.322Z,96845.19
2023-06-29T00:51:26.968Z,96849.41
2023-06-29T00:53:28.563Z,96849.00
2023-06-29T00:55:30.416Z,96849.94
2023-06-29T00:57:33.656Z,96847.75
2023-06-29T00:59:36.640Z,96845.13
2023-06-29T01:01:40.490Z,96850.47
2023-06-29T01:03:43.284Z,96844.69
2023-06-29T01:05:46.839Z,96839.41
2023-06-29T01:08:06.807Z,96846.41
2023-06-29T01:10:11.731Z,96840.03
2023-06-29T01:12:14.846Z,96841.13
2023-06-29T01:14:18.352Z,96837.75
2023-06-29T01:16:22.606Z,96836.97
2023-06-29T01:18:25.377Z,96836.97
2023-06-29T01:20:28.255Z,96847.25
2023-06-29T01:22:38.069Z,96844.94
2023-06-29T01:24:41.302Z,96842.66
2023-06-29T01:26:43.263Z,96827.88
2023-06-29T01:28:44.831Z,96824.31
2023-06-29T01:30:50.569Z,96827.78
2023-06-29T01:32:53.231Z,96832.53
2023-06-29T01:34:55.940Z,96836.06
2023-06-29T01:37:19.803Z,96831.63
2023-06-29T01:39:24.774Z,96840.72
2023-06-29T01:41:27.436Z,96832.91
2023-06-29T01:43:30.287Z,96828.22
2023-06-29T01:45:34.246Z,96842.16
2023-06-29T01:47:36.641Z,96828.34
2023-06-29T01:49:38.810Z,96830.53
2023-06-29T01:51:40.516Z,96827.72
2023-06-29T01:53:42.305Z,96822.25
2023-06-29T01:55:44.129Z,96825.03
2023-06-29T01:57:46.243Z,96828.41
2023-06-29T01:59:48.437Z,96819.69
2023-06-29T02:01:50.120Z,96825.28
2023-06-29T02:03:51.722Z,96822.81
2023-06-29T02:05:53.391Z,96822.81
2023-06-29T02:07:55.026Z,96823.22
2023-06-29T02:09:56.713Z,96825.44
2023-06-29T02:11:59.674Z,96824.88
2023-06-29T02:14:01.341Z,96819.44
2023-06-29T02:16:03.043Z,96822.06
2023-06-29T02:18:04.653Z,96823.31
2023-06-29T02:20:10.173Z,96816.13
2023-06-29T02:22:12.987Z,96814.84
2023-06-29T02:24:16.461Z,96805.53
2023-06-29T02:26:18.555Z,96816.31
2023-06-29T02:28:20.246Z,96816.06
2023-06-29T02:30:21.971Z,96820.69
2023-06-29T02:32:24.197Z,96810.44
2023-06-29T02:34:26.041Z,96809.00
2023-06-29T02:36:28.414Z,96812.97
2023-06-29T02:38:30.024Z,96805.44
2023-06-29T02:40:31.802Z,96801.09
2023-06-29T02:42:33.965Z,96796.88
2023-06-29T02:44:35.942Z,96797.22
2023-06-29T02:46:37.651Z,96806.88
2023-06-29T02:48:39.226Z,96803.66
2023-06-29T02:50:41.122Z,96800.00
2023-06-29T02:52:43.014Z,96801.97
2023-06-29T02:54:44.747Z,96795.16
2023-06-29T02:56:46.580Z,96795.44
2023-06-29T02:58:48.243Z,96797.22
2023-06-29T03:00:56.046Z,96803.31
2023-06-29T03:02:57.876Z,96792.97
2023-06-29T03:05:00.256Z,96796.38
2023-06-29T03:07:03.022Z,96804.06
2023-06-29T03:09:05.525Z,96804.34
2023-06-29T03:11:06.994Z,96807.38
2023-06-29T03:13:08.554Z,96796.94
2023-06-29T03:15:10.661Z,96803.56
2023-06-29T03:17:14.443Z,96795.44
2023-06-29T03:19:16.018Z,96796.59
2023-06-29T03:21:20.621Z,96791.78
2023-06-29T03:23:22.513Z,96800.91
2023-06-29T03:25:24.320Z,96795.50
2023-06-29T03:27:25.885Z,96787.88
2023-06-29T03:29:28.135Z,96793.50
2023-06-29T03:31:29.839Z,96789.22
2023-06-29T03:33:31.501Z,96798.66
2023-06-29T03:35:33.207Z,96790.94
2023-06-29T03:37:34.893Z,96790.75
2023-06-29T03:39:36.471Z,96789.22
2023-06-29T03:41:38.048Z,96776.97
2023-06-29T03:43:39.701Z,96784.84
2023-06-29T03:45:41.511Z,96780.94
2023-06-29T03:47:43.314Z,96785.53
2023-06-29T03:49:45.415Z,96772.97
2023-06-29T03:51:46.955Z,96780.78
2023-06-29T03:53:48.530Z,96778.56
2023-06-29T03:55:50.203Z,96769.56
2023-06-29T03:57:52.034Z,96765.94
2023-06-29T03:59:53.636Z,96766.69
2023-06-29T04:01:55.386Z,96768.94
2023-06-29T04:03:57.063Z,96773.00
2023-06-29T04:05:58.730Z,96771.22
2023-06-29T04:08:05.235Z,96776.53
2023-06-29T04:10:07.326Z,96769.16
2023-06-29T04:12:09.238Z,96775.00
2023-06-29T04:14:10.808Z,96767.09
2023-06-29T04:16:12.526Z,96772.16
2023-06-29T04:18:14.182Z,96767.31
2023-06-29T04:20:15.880Z,96769.69
2023-06-29T04:22:17.988Z,96775.81
2023-06-29T04:24:19.639Z,96774.03
2023-06-29T04:26:28.961Z,96772.47
2023-06-29T04:28:33.623Z,96774.31
2023-06-29T04:30:37.507Z,96770.22
2023-06-29T04:32:40.493Z,96769.59
2023-06-29T04:34:42.266Z,96757.13
2023-06-29T04:36:47.103Z,96765.75
2023-06-29T04:38:48.992Z,96758.91
2023-06-29T04:40:50.664Z,96763.25
2023-06-29T04:42:58.134Z,96759.22
2023-06-29T04:45:01.519Z,96763.59
2023-06-29T04:47:04.062Z,96753.91
2023-06-29T04:49:07.490Z,96755.13
2023-06-29T04:51:09.439Z,96753.16
2023-06-29T04:53:13.483Z,96756.19
2023-06-29T04:55:15.123Z,96755.91
2023-06-29T04:57:16.701Z,96754.28
2023-06-29T04:59:18.299Z,96753.31
2023-06-29T05:01:20.034Z,96753.50
2023-06-29T05:03:21.729Z,96752.41
2023-06-29T05:05:23.786Z,96766.41
2023-06-29T05:07:25.937Z,96761.88
2023-06-29T05:09:27.557Z,96764.84
2023-06-29T05:11:29.300Z,96762.38
2023-06-29T05:13:30.915Z,96767.59
2023-06-29T05:15:32.711Z,96766.16
2023-06-29T05:17:35.611Z,96765.91
2023-06-29T05:19:37.475Z,96771.59
2023-06-29T05:21:39.029Z,96764.81
2023-06-29T05:23:40.853Z,96769.84
2023-06-29T05:25:43.277Z,96772.31
2023-06-29T05:27:45.124Z,96774.59
2023-06-29T05:29:46.658Z,96772.50
2023-06-29T05:31:48.300Z,96764.44
2023-06-29T05:33:50.277Z,96763.38
2023-06-29T05:35:52.827Z,96765.09
2023-06-29T05:37:54.385Z,96762.47
2023-06-29T05:39:57.694Z,96763.97
2023-06-29T05:41:59.233Z,96767.56
2023-06-29T05:44:00.960Z,96770.59
2023-06-29T05:46:02.802Z,96764.59
2023-06-29T05:48:04.988Z,96768.94
2023-06-29T05:50:07.423Z,96761.94
2023-06-29T05:52:09.113Z,96769.16
2023-06-29T05:54:11.209Z,96754.13
2023-06-29T05:56:12.822Z,96763.81
2023-06-29T05:58:14.357Z,96760.09
2023-06-29T06:00:16.601Z,96763.91
2023-06-29T06:02:20.819Z,96759.44
2023-06-29T06:04:22.634Z,96765.72
2023-06-29T06:06:24.334Z,96765.00
2023-06-29T06:08:25.892Z,96761.50
2023-06-29T06:10:27.545Z,96764.72
2023-06-29T06:12:29.436Z,96758.47
2023-06-29T06:14:31.278Z,96763.88
2023-06-29T06:16:32.975Z,96770.41
2023-06-29T06:18:34.663Z,96767.66
2023-06-29T06:20:36.324Z,96765.31
2023-06-29T06:22:37.951Z,96767.75
2023-06-29T06:24:39.862Z,96763.66
2023-06-29T06:26:41.929Z,96761.53
2023-06-29T06:28:43.426Z,96758.19
2023-06-29T06:30:45.238Z,96747.56
2023-06-29T06:32:47.007Z,96758.91
2023-06-29T06:34:51.604Z,96759.59
2023-06-29T06:36:53.269Z,96755.72
2023-06-29T06:38:54.835Z,96753.84
2023-06-29T06:40:56.376Z,96753.25
2023-06-29T06:42:59.819Z,96752.22
2023-06-29T06:45:05.148Z,96744.81
2023-06-29T06:47:07.070Z,96744.41
2023-06-29T06:49:09.024Z,96745.25
2023-06-29T06:51:10.634Z,96741.81
2023-06-29T06:53:12.507Z,96744.44
2023-06-29T06:55:14.099Z,96748.75
2023-06-29T06:57:15.785Z,96751.38
2023-06-29T06:59:17.295Z,96756.41
2023-06-29T07:01:23.178Z,96754.72
2023-06-29T07:03:27.230Z,96755.78
2023-06-29T07:05:29.142Z,96750.56
2023-06-29T07:07:31.395Z,96754.63
2023-06-29T07:09:33.244Z,96752.19
2023-06-29T07:11:37.143Z,96761.50
2023-06-29T07:13:38.935Z,96756.72
2023-06-29T07:15:40.576Z,96758.03
2023-06-29T07:17:42.183Z,96749.78
2023-06-29T07:25:57.434Z,96737.03
2023-06-29T07:27:59.205Z,96739.56
2023-06-29T07:30:00.832Z,96744.06
2023-06-29T07:32:02.911Z,96741.31
2023-06-29T07:34:04.668Z,96738.06
2023-06-29T07:36:06.516Z,96739.06
2023-06-29T07:38:08.294Z,96736.09
2023-06-29T07:40:10.292Z,96729.31
2023-06-29T07:42:11.913Z,96731.81
2023-06-29T07:44:13.640Z,96736.59
2023-06-29T07:46:15.521Z,96733.56
2023-06-29T07:48:18.390Z,96742.63
2023-06-29T07:50:20.982Z,96730.28
2023-06-29T07:52:23.876Z,96737.81
2023-06-29T07:54:25.480Z,96734.28
2023-06-29T07:58:39.172Z,96737.06
2023-06-29T07:58:48.968Z,96737.00
2023-06-29T08:00:51.701Z,96735.44
2023-06-29T08:02:53.809Z,96726.91
2023-06-29T08:07:00.103Z,96736.00
2023-06-29T08:09:01.964Z,96729.97
2023-06-29T08:11:03.670Z,96726.38
2023-06-29T08:13:06.193Z,96733.00
2023-06-29T08:15:08.391Z,96726.19
2023-06-29T08:17:09.956Z,96734.91
2023-06-29T08:19:11.639Z,96732.28
2023-06-29T08:21:13.559Z,96730.50
2023-06-29T08:23:15.654Z,96727.25
2023-06-29T08:25:17.340Z,96722.16
2023-06-29T08:27:20.586Z,96727.72
2023-06-29T08:29:22.300Z,96726.09
2023-06-29T08:31:23.921Z,96726.06
2023-06-29T08:33:25.686Z,96727.50
2023-06-29T08:35:27.501Z,96723.44
2023-06-29T08:37:29.399Z,96724.91
2023-06-29T08:39:31.190Z,96727.94
2023-06-29T08:41:32.913Z,96721.81
2023-06-29T08:43:34.578Z,96731.59
2023-06-29T08:45:36.114Z,96721.31
2023-06-29T08:47:39.479Z,96719.72
2023-06-29T08:49:43.299Z,96728.38
2023-06-29T08:51:49.812Z,96724.97
2023-06-29T08:53:53.220Z,96725.06
2023-06-29T08:55:54.879Z,96717.53
2023-06-29T08:57:56.470Z,96722.56
2023-06-29T09:00:00.872Z,96733.06
2023-06-29T09:02:04.540Z,96725.75
2023-06-29T09:04:06.965Z,96724.34
2023-06-29T09:06:10.861Z,96715.72
2023-06-29T09:08:13.014Z,96726.16
2023-06-29T09:10:16.215Z,96719.31
2023-06-29T09:12:18.588Z,96715.28
2023-06-29T09:14:20.339Z,96716.47
2023-06-29T09:16:29.511Z,96708.25
2023-06-29T09:18:33.499Z,96718.59
2023-06-29T09:20:47.384Z,96721.03
2023-06-29T09:22:53.099Z,96725.66
2023-06-29T09:25:09.989Z,96725.31
2023-06-29T09:27:14.793Z,96714.50
2023-06-29T09:29:17.679Z,96712.13
2023-06-29T09:31:19.371Z,96709.66
2023-06-29T09:33:26.256Z,96719.72
2023-06-29T09:35:29.934Z,96718.00
2023-06-29T09:37:31.554Z,96717.41
2023-06-29T09:39:33.444Z,96711.25
2023-06-29T09:41:51.704Z,96711.53
2023-06-29T09:43:54.008Z,96712.84
2023-06-29T09:46:09.377Z,96706.59
2023-06-29T09:50:22.628Z,96708.84
2023-06-29T09:52:24.588Z,96707.50
2023-06-29T09:54:26.473Z,96691.63
2023-06-29T09:56:28.222Z,96699.81
2023-06-29T09:58:31.001Z,96691.53
2023-06-29T10:00:33.285Z,96684.88
2023-06-29T10:02:35.008Z,96679.75
2023-06-29T10:04:36.982Z,96684.50
2023-06-29T10:06:44.853Z,96687.47
2023-06-29T10:08:51.209Z,96677.34
2023-06-29T10:10:56.996Z,96681.50
2023-06-29T10:12:59.224Z,96672.28
2023-06-29T10:15:10.050Z,96676.16
2023-06-29T10:17:55.028Z,96676.56
2023-06-29T10:19:58.702Z,96670.03
2023-06-29T10:22:07.782Z,96672.16
2023-06-29T10:24:14.117Z,96670.94
2023-06-29T10:26:16.981Z,96668.84
2023-06-29T10:28:20.344Z,96677.25
2023-06-29T10:30:24.972Z,96678.38
2023-06-29T10:32:38.528Z,96674.72
2023-06-29T10:35:03.056Z,96677.41
2023-06-29T10:37:05.848Z,96674.56
2023-06-29T10:39:39.887Z,96673.38
2023-06-29T10:41:42.231Z,96667.97
2023-06-29T10:44:01.197Z,96661.81
2023-06-29T10:46:02.793Z,96664.88
2023-06-29T10:48:06.190Z,96660.66
2023-06-29T10:50:11.628Z,96654.00
2023-06-29T10:52:24.109Z,96645.34
2023-06-29T10:54:26.455Z,96649.25
2023-06-29T10:56:31.978Z,96644.38
2023-06-29T10:58:38.866Z,96647.19
2023-06-29T11:00:41.495Z,96650.09
2023-06-29T11:02:43.227Z,96634.59
2023-06-29T11:04:44.972Z,96647.19
2023-06-29T11:06:46.699Z,96639.28
2023-06-29T11:08:48.871Z,96636.50
2023-06-29T11:10:52.040Z,96627.53
2023-06-29T11:12:56.800Z,96631.84
2023-06-29T11:15:18.427Z,96632.00
2023-06-29T11:17:20.357Z,96632.69
2023-06-29T11:19:27.300Z,96626.91
2023-06-29T11:21:28.877Z,96625.84
2023-06-29T11:23:30.431Z,96623.59
2023-06-29T11:25:32.753Z,96628.19
2023-06-29T11:27:34.336Z,96635.22
2023-06-29T11:29:35.889Z,96630.59
2023-06-29T11:31:37.499Z,96630.44
2023-06-29T11:33:47.652Z,96624.13
2023-06-29T11:35:49.320Z,96619.00
2023-06-29T11:37:57.174Z,96622.63
2023-06-29T11:39:58.985Z,96626.28
2023-06-29T11:42:01.974Z,96627.50
2023-06-29T11:44:03.916Z,96625.41
2023-06-29T11:46:06.655Z,96625.97
2023-06-29T11:48:08.681Z,96628.72
2023-06-29T11:50:11.634Z,96624.47
2023-06-29T11:52:13.313Z,96622.78
2023-06-29T11:54:15.181Z,96624.47
2023-06-29T11:56:36.406Z,96619.66
2023-06-29T11:58:38.174Z,96612.28
2023-06-29T12:00:39.771Z,96611.44
2023-06-29T12:02:41.987Z,96615.81
2023-06-29T12:05:00.875Z,96618.72
2023-06-29T12:07:03.355Z,96621.38
2023-06-29T12:09:12.781Z,96615.28
2023-06-29T12:11:22.865Z,96616.78
2023-06-29T12:13:25.009Z,96607.78
2023-06-29T12:15:28.951Z,96607.72
2023-06-29T12:19:38.813Z,96600.34
2023-06-29T12:21:45.500Z,96602.06
2023-06-29T12:23:47.862Z,96601.84
2023-06-29T12:25:53.364Z,96601.00
2023-06-29T12:27:55.323Z,96603.94
2023-06-29T12:29:56.904Z,96596.25
2023-06-29T12:32:01.965Z,96598.63
2023-06-29T12:34:04.253Z,96601.97
2023-06-29T12:36:05.698Z,96600.69
2023-06-29T12:38:07.643Z,96605.72
2023-06-29T12:40:09.634Z,96600.06
2023-06-29T12:42:11.385Z,96604.72
2023-06-29T12:44:13.112Z,96601.00
2023-06-29T12:46:15.206Z,96604.25
2023-06-29T12:48:17.068Z,96599.50
2023-06-29T12:50:19.887Z,96590.66
2023-06-29T12:52:21.613Z,96603.88
2023-06-29T12:54:23.201Z,96593.38
2023-06-29T12:56:26.381Z,96590.78
2023-06-29T12:58:28.224Z,96596.03
2023-06-29T13:00:29.929Z,96591.91
2023-06-29T13:02:32.947Z,96595.38
2023-06-29T13:04:36.816Z,96596.53
2023-06-29T13:06:41.946Z,96598.28
2023-06-29T13:08:44.592Z,96599.34
2023-06-29T13:10:46.456Z,96605.66
2023-06-29T13:12:48.100Z,96589.28
2023-06-29T13:14:53.562Z,96594.59
2023-06-29T13:16:58.109Z,96596.88
2023-06-29T13:18:59.663Z,96591.19
2023-06-29T13:21:01.762Z,96591.94
2023-06-29T13:23:03.340Z,96590.75
2023-06-29T13:25:05.379Z,96593.38
2023-06-29T13:27:07.601Z,96596.81
2023-06-29T13:29:09.072Z,96593.03
2023-06-29T13:31:10.754Z,96596.25
2023-06-29T13:33:12.479Z,96599.03
2023-06-29T13:35:14.112Z,96597.81
2023-06-29T13:37:16.709Z,96604.25
2023-06-29T13:39:18.369Z,96602.03
2023-06-29T13:41:21.412Z,96607.19
2023-06-29T13:43:23.500Z,96605.72
2023-06-29T13:45:25.281Z,96608.72
2023-06-29T13:47:26.953Z,96606.06
2023-06-29T13:49:28.608Z,96604.84
2023-06-29T13:51:31.859Z,96608.91
2023-06-29T13:53:33.456Z,96607.75
2023-06-29T13:55:35.068Z,96604.53
2023-06-29T13:57:36.659Z,96609.56
2023-06-29T13:59:38.653Z,96610.84
2023-06-29T14:01:41.610Z,96605.56
2023-06-29T14:03:43.339Z,96605.31
2023-06-29T14:05:45.241Z,96600.31
2023-06-29T14:07:47.239Z,96599.03
2023-06-29T14:09:48.785Z,96597.03
2023-06-29T14:11:53.055Z,96595.75
2023-06-29T14:13:56.594Z,96596.53
2023-06-29T14:15:59.460Z,96599.28
2023-06-29T14:18:01.293Z,96594.72
2023-06-29T14:20:03.062Z,96593.47
2023-06-29T14:22:06.811Z,96584.69
2023-06-29T14:24:11.140Z,96588.22
2023-06-29T14:26:12.993Z,96590.19
2023-06-29T14:28:14.540Z,96585.41
2023-06-29T14:30:16.251Z,96589.16
2023-06-29T14:32:18.019Z,96588.16
2023-06-29T14:34:20.014Z,96586.81
2023-06-29T14:36:21.620Z,96588.72
2023-06-29T14:38:23.819Z,96587.53
2023-06-29T14:40:25.832Z,96582.69
2023-06-29T14:42:27.832Z,96580.13
2023-06-29T14:44:29.717Z,96580.53
2023-06-29T14:46:31.679Z,96579.88
2023-06-29T14:48:33.603Z,96576.41
2023-06-29T14:50:35.478Z,96573.91
2023-06-29T14:52:38.991Z,96580.44
2023-06-29T14:54:40.987Z,96579.25
2023-06-29T14:56:42.654Z,96579.75
2023-06-29T14:58:44.695Z,96573.56
2023-06-29T15:00:46.296Z,96562.16
2023-06-29T15:02:48.843Z,96574.47
2023-06-29T15:04:50.468Z,96564.88
2023-06-29T15:06:53.866Z,96568.25
2023-06-29T15:08:56.609Z,96561.22
2023-06-29T15:10:58.152Z,96554.53
2023-06-29T15:12:59.879Z,96548.59
2023-06-29T15:15:02.752Z,96540.69
2023-06-29T15:17:06.146Z,96552.44
2023-06-29T15:19:07.852Z,96551.16
2023-06-29T15:21:09.436Z,96543.38
2023-06-29T15:23:11.400Z,96542.84
2023-06-29T15:25:13.651Z,96539.94
2023-06-29T15:27:15.273Z,96536.78
2023-06-29T15:29:16.928Z,96530.03
2023-06-29T15:31:18.553Z,96527.03
2023-06-29T15:33:20.366Z,96528.84
2023-06-29T15:35:22.841Z,96528.00
2023-06-29T15:37:25.023Z,96522.69
2023-06-29T15:39:26.822Z,96522.00
2023-06-29T15:41:28.436Z,96521.19
2023-06-29T15:43:30.048Z,96515.84
2023-06-29T15:45:31.668Z,96513.81
2023-06-29T15:47:34.455Z,96512.41
2023-06-29T15:49:37.522Z,96511.47
2023-06-29T15:51:39.168Z,96509.13
2023-06-29T15:53:40.744Z,96508.28
2023-06-29T15:55:42.371Z,96505.06
2023-06-29T15:57:43.995Z,96507.38
2023-06-29T15:59:46.208Z,96504.94
2023-06-29T16:01:47.890Z,96499.63
2023-06-29T16:03:49.890Z,96505.88
2023-06-29T16:05:51.946Z,96509.56
2023-06-29T16:07:54.063Z,96504.16
2023-06-29T16:09:56.275Z,96499.63
2023-06-29T16:11:57.895Z,96499.28
2023-06-29T16:13:59.439Z,96498.69
2023-06-29T16:16:01.053Z,96485.66
2023-06-29T16:18:02.649Z,96492.88
2023-06-29T16:20:04.794Z,96489.13
2023-06-29T16:22:07.745Z,96489.53
2023-06-29T16:24:09.308Z,96490.28
2023-06-29T16:26:10.884Z,96488.09
2023-06-29T16:28:12.509Z,96479.09
2023-06-29T16:30:14.101Z,96485.91
2023-06-29T16:32:16.297Z,96483.91
2023-06-29T16:34:17.945Z,96491.31
2023-06-29T16:36:20.060Z,96499.09
2023-06-29T16:38:22.509Z,96492.44
2023-06-29T16:40:24.095Z,96491.19
2023-06-29T16:42:25.937Z,96491.13
2023-06-29T16:44:27.737Z,96490.69
2023-06-29T16:46:29.580Z,96475.84
2023-06-29T16:48:31.468Z,96478.66
2023-06-29T16:50:33.166Z,96487.56
2023-06-29T16:52:34.854Z,96485.59
2023-06-29T16:54:36.374Z,96481.38
2023-06-29T16:56:38.036Z,96481.47
2023-06-29T16:58:39.692Z,96491.31
2023-06-29T17:00:42.427Z,96483.56
2023-06-29T17:02:44.155Z,96482.09
2023-06-29T17:04:45.795Z,96485.09
2023-06-29T17:06:47.590Z,96490.88
2023-06-29T17:08:49.184Z,96477.81
2023-06-29T17:10:53.961Z,96479.56
2023-06-29T17:12:55.526Z,96481.59
2023-06-29T17:14:57.470Z,96476.31
2023-06-29T17:16:59.993Z,96482.13
2023-06-29T17:19:01.668Z,96477.63
2023-06-29T17:21:03.833Z,96479.13
2023-06-29T17:23:05.449Z,96487.44
2023-06-29T17:25:08.403Z,96489.69
2023-06-29T17:27:11.151Z,96479.16
2023-06-29T17:29:12.936Z,96469.66
2023-06-29T17:31:14.672Z,96473.47
2023-06-29T17:33:17.922Z,96476.25
2023-06-29T17:35:19.473Z,96478.75
2023-06-29T17:37:21.136Z,96480.72
2023-06-29T17:39:22.969Z,96484.47
2023-06-29T17:41:24.524Z,96482.47
2023-06-29T17:43:26.285Z,96480.44
2023-06-29T17:45:28.806Z,96482.97
2023-06-29T17:47:30.485Z,96486.97
2023-06-29T17:49:32.327Z,96485.47
2023-06-29T17:51:33.918Z,96478.47
2023-06-29T17:53:35.635Z,96484.25
2023-06-29T17:55:37.225Z,96492.78
2023-06-29T17:57:38.748Z,96486.22
2023-06-29T17:59:40.287Z,96486.25
2023-06-29T18:01:41.879Z,96486.25
2023-06-29T18:03:43.818Z,96486.78
2023-06-29T18:05:45.778Z,96477.28
2023-06-29T18:07:47.675Z,96481.28
2023-06-29T18:09:49.860Z,96472.53
2023-06-29T18:11:53.521Z,96477.53
2023-06-29T18:13:55.249Z,96481.78
2023-06-29T18:15:56.913Z,96474.69
2023-06-29T18:17:58.848Z,96477.94
2023-06-29T18:20:01.483Z,96480.22
2023-06-29T18:22:03.559Z,96483.31
2023-06-29T18:24:05.593Z,96478.28
2023-06-29T18:26:08.072Z,96482.03
2023-06-29T18:28:09.755Z,96479.78
2023-06-29T18:30:12.928Z,96477.81
2023-06-29T18:32:14.641Z,96473.06
2023-06-29T18:34:16.198Z,96470.38
2023-06-29T18:36:17.820Z,96469.63
2023-06-29T18:38:19.744Z,96478.69
2023-06-29T18:40:25.456Z,96470.91
2023-06-29T18:42:27.074Z,96476.47
2023-06-29T18:44:29.082Z,96477.53
2023-06-29T18:46:31.588Z,96479.28
2023-06-29T18:48:33.851Z,96475.25
2023-06-29T18:50:35.638Z,96479.53
2023-06-29T18:52:37.187Z,96476.75
2023-06-29T18:54:38.881Z,96474.22
2023-06-29T18:56:40.473Z,96467.47
2023-06-29T18:58:42.297Z,96468.72
2023-06-29T19:00:46.631Z,96463.47
2023-06-29T19:02:48.598Z,96470.72
2023-06-29T19:04:50.862Z,96465.94
2023-06-29T19:06:52.922Z,96464.44
2023-06-29T19:08:55.271Z,96465.94
2023-06-29T19:10:57.408Z,96462.44
2023-06-29T19:12:58.989Z,96465.94
2023-06-29T19:15:01.058Z,96467.69
2023-06-29T19:17:02.597Z,96469.91
2023-06-29T19:19:04.252Z,96472.84
2023-06-29T19:21:06.034Z,96468.78
2023-06-29T19:23:07.910Z,96475.22
2023-06-29T19:25:10.278Z,96473.41
2023-06-29T19:27:12.052Z,96478.31
2023-06-29T19:29:14.767Z,96478.94
2023-06-29T19:31:16.752Z,96468.31
2023-06-29T19:33:18.464Z,96472.00
2023-06-29T19:35:20.256Z,96476.38
2023-06-29T19:37:25.065Z,96477.34
2023-06-29T19:39:26.740Z,96480.44
2023-06-29T19:41:28.651Z,96483.84
2023-06-29T19:43:34.070Z,96483.28
2023-06-29T19:45:36.326Z,96481.44
2023-06-29T19:47:38.399Z,96486.66
2023-06-29T19:49:40.534Z,96487.13
2023-06-29T19:51:42.405Z,96493.56
2023-06-29T19:53:45.102Z,96488.75
2023-06-29T19:55:46.906Z,96489.75
2023-06-29T19:57:48.832Z,96486.31
2023-06-29T19:59:51.265Z,96489.53
2023-06-29T20:01:52.822Z,96494.16
2023-06-29T20:03:54.450Z,96500.13
2023-06-29T20:05:56.122Z,96499.13
2023-06-29T20:07:57.724Z,96497.25
2023-06-29T20:09:59.334Z,96491.88
2023-06-29T20:12:00.986Z,96500.84
2023-06-29T20:14:02.802Z,96492.88
2023-06-29T20:16:04.766Z,96494.81
2023-06-29T20:18:06.527Z,96493.66
2023-06-29T20:20:08.723Z,96493.44
2023-06-29T20:22:11.293Z,96493.75
2023-06-29T20:24:13.017Z,96493.50
2023-06-29T20:26:14.597Z,96486.13
2023-06-29T20:28:17.330Z,96489.81
2023-06-29T20:30:18.981Z,96486.38
2023-06-29T20:32:20.635Z,96487.94
2023-06-29T20:34:22.529Z,96477.03
2023-06-29T20:36:24.339Z,96485.19
2023-06-29T20:38:26.018Z,96485.38
2023-06-29T20:40:27.744Z,96488.19
2023-06-29T20:42:29.658Z,96484.03
2023-06-29T20:44:33.569Z,96484.03
2023-06-29T20:46:35.452Z,96484.03
2023-06-29T20:48:37.438Z,96480.06
2023-06-29T20:50:39.191Z,96473.06
2023-06-29T20:52:40.782Z,96478.00
2023-06-29T20:54:42.365Z,96475.19
2023-06-29T20:56:45.152Z,96480.91
2023-06-29T20:58:47.039Z,96474.13
2023-06-29T21:00:49.268Z,96483.59
2023-06-29T21:02:51.831Z,96468.47
2023-06-29T21:04:56.928Z,96470.66
2023-06-29T21:06:58.755Z,96469.19
2023-06-29T21:09:00.579Z,96476.69
2023-06-29T21:11:02.735Z,96476.41
2023-06-29T21:13:04.283Z,96479.72
2023-06-29T21:15:06.802Z,96486.44
2023-06-29T21:17:09.748Z,96478.31
2023-06-29T21:19:15.938Z,96481.41
2023-06-29T21:21:17.788Z,96474.31
2023-06-29T21:23:19.805Z,96475.47
2023-06-29T21:25:22.202Z,96468.13
2023-06-29T21:27:23.992Z,96465.16
2023-06-29T21:29:41.540Z,96472.66
2023-06-29T21:31:45.094Z,96479.91
2023-06-29T21:33:46.891Z,96472.75
2023-06-29T21:35:48.685Z,96476.44
2023-06-29T21:37:50.550Z,96478.09
2023-06-29T21:39:52.120Z,96479.94
2023-06-29T21:41:53.870Z,96482.56
2023-06-29T21:43:55.727Z,96482.31
2023-06-29T21:45:57.298Z,96486.94
2023-06-29T21:47:59.197Z,96485.38
2023-06-29T21:50:01.040Z,96483.31
2023-06-29T21:52:02.636Z,96485.66
2023-06-29T21:54:05.448Z,96477.25
2023-06-29T21:56:21.246Z,96477.06
2023-06-29T21:58:28.000Z,96475.09
2023-06-29T22:00:30.165Z,96470.38
2023-06-29T22:02:31.950Z,96474.06
2023-06-29T22:04:33.541Z,96477.72
2023-06-29T22:06:35.325Z,96471.69
2023-06-29T22:08:36.877Z,96471.59
2023-06-29T22:10:38.563Z,96471.00
2023-06-29T22:12:44.039Z,96474.84
2023-06-29T22:14:49.432Z,96468.78
2023-06-29T22:16:52.477Z,96461.72
2023-06-29T22:18:54.102Z,96459.69
2023-06-29T22:20:55.720Z,96457.88
2023-06-29T22:22:57.436Z,96456.28
2023-06-29T22:24:59.173Z,96463.91
2023-06-29T22:27:00.802Z,96457.09
2023-06-29T22:29:02.906Z,96460.03
2023-06-29T22:31:04.496Z,96453.69
2023-06-29T22:33:06.245Z,96461.31
2023-06-29T22:35:08.403Z,96454.50
2023-06-29T22:37:09.863Z,96451.63
2023-06-29T22:39:11.469Z,96454.09
2023-06-29T22:41:14.870Z,96449.56
2023-06-29T22:43:16.500Z,96451.41
2023-06-29T22:45:19.075Z,96451.13
2023-06-29T22:47:20.794Z,96441.25
2023-06-29T22:49:22.671Z,96448.88
2023-06-29T22:51:27.386Z,96450.75
2023-06-29T22:53:29.624Z,96451.38
2023-06-29T22:55:31.325Z,96444.56
2023-06-29T22:57:33.227Z,96442.47
2023-06-29T22:59:34.830Z,96443.09
2023-06-29T23:01:37.258Z,96438.88
2023-06-29T23:03:39.361Z,96435.53
2023-06-29T23:05:41.104Z,96431.75
2023-06-29T23:07:45.281Z,96439.94
2023-06-29T23:09:47.061Z,96431.50
2023-06-29T23:11:50.405Z,96428.31
2023-06-29T23:13:52.176Z,96432.72
2023-06-29T23:15:53.775Z,96435.63
2023-06-29T23:17:55.572Z,96435.78
2023-06-29T23:19:58.176Z,96430.50
2023-06-29T23:22:01.008Z,96429.91
2023-06-29T23:24:03.912Z,96426.56
2023-06-29T23:26:07.482Z,96435.38
2023-06-29T23:28:10.745Z,96427.69
2023-06-29T23:30:14.247Z,96428.88
2023-06-29T23:32:15.879Z,96434.06
2023-06-29T23:34:17.820Z,96434.38
2023-06-29T23:36:22.728Z,96435.59
2023-06-29T23:38:24.464Z,96428.63
2023-06-29T23:40:26.971Z,96427.09
2023-06-29T23:42:28.830Z,96435.44
2023-06-29T23:44:30.711Z,96430.91
2023-06-29T23:46:59.387Z,96427.13
2023-06-29T23:49:01.190Z,96429.69
2023-06-29T23:51:02.827Z,96431.81
2023-06-29T23:53:05.015Z,96424.84
2023-06-29T23:55:09.265Z,96424.09
2023-06-29T23:57:10.821Z,96428.19
2023-06-29T23:59:12.731Z,96424.88
